Flight Track Log - Related Links

Times and Time Zones

All times are in EDT time to prevent confusion due to time zone crossing. See the SWA1725 flight status page for this flight to view local times or setup timezone preferences in your user account.

Time Position Orientation Groundspeed Altitude Reporting Facility
EDT Latitude Longitude Course Direction KTS MPH feet Rate Location/Type
Fri 09:33:55 PM 41.8189 -87.7497 180° South 153 176 3,100  Level Chicago Center
Fri 09:34:56 PM 41.7658 -87.7156 154° Southeast 253 291 5,600 3,512 Climbing Chicago Center
Fri 09:35:58 PM 41.6953 -87.7508 200° South 269 310 10,300 4,258 Climbing Chicago Center
Fri 09:37:00 PM 41.5944 -87.7956 198° South 319 367 14,400 3,659 Climbing Chicago Center
Fri 09:38:01 PM 41.5006 -87.8383 199° South 346 398 17,800 3,366 Climbing Chicago Center
Fri 09:39:00 PM 41.1376 -87.8833 180° South  Level FlightAware Approximate
Fri 09:39:03 PM 41.3972 -87.8789 196° South 375 432 21,300  Level Chicago Center
Fri 09:40:05 PM 41.2811 -87.8767 179° South 409 471 24,500 2,976 Climbing Chicago Center
Fri 09:41:06 PM 41.1622 -87.8556 172° South 425 489 27,400 2,488 Climbing Chicago Center
Fri 09:42:08 PM 41.0394 -87.8361 173° South 437 503 29,600 2,000 Climbing Chicago Center
Fri 09:43:09 PM 40.9103 -87.8150 173° South 465 535 31,500 1,902 Climbing Chicago Center
Fri 09:44:11 PM 40.7778 -87.7931 173° South 479 551 33,500 2,341 Climbing Chicago Center
Fri 09:45:12 PM 40.6194 -87.7683 173° South 479 551 36,300 2,195 Climbing Chicago Center
Fri 09:46:14 PM 40.4903 -87.7475 173° South 473 544 38,000 1,590 Climbing Chicago Center
Fri 09:47:09 PM 40.3700 -87.7306 174° South 475 547 39,400 1,385 Climbing Indianapolis Center
Fri 09:48:11 PM 40.2386 -87.7100 173° South 475 547 40,700 780 Climbing Indianapolis Center
Fri 09:49:12 PM 40.1078 -87.6894 173° South 472 543 41,000 148 Climbing Indianapolis Center
Fri 09:50:13 PM 39.9775 -87.6681 173° South 468 539 41,000  Level Indianapolis Center
Fri 09:51:14 PM 39.8472 -87.6472 173° South 468 539 41,000  Level Indianapolis Center
Fri 09:52:16 PM 39.7183 -87.6275 173° South 466 536 41,000  Level Indianapolis Center
Fri 09:53:17 PM 39.5883 -87.6069 173° South 466 536 41,000  Level Indianapolis Center
Fri 09:54:18 PM 39.4592 -87.5869 173° South 465 535 41,000  Level Indianapolis Center
Fri 09:55:19 PM 39.3297 -87.5675 173° South 466 536 41,000  Level Indianapolis Center
Fri 09:56:20 PM 39.1786 -87.5442 173° South 466 536 41,000  Level Indianapolis Center
Fri 09:57:21 PM 39.0578 -87.5272 174° South 473 544 41,000  Level Indianapolis Center
Fri 09:58:23 PM 38.9264 -87.5064 173° South 475 547 41,000  Level Indianapolis Center
Fri 09:59:24 PM 38.7942 -87.4861 173° South 477 549 41,000  Level Indianapolis Center
Fri 10:00:25 PM 38.6622 -87.4672 174° South 477 549 41,000  Level Indianapolis Center
Fri 10:01:26 PM 38.5319 -87.4475 173° South 474 545 41,000  Level Indianapolis Center
Fri 10:02:27 PM 38.3758 -87.4239 173° South 474 545 41,000  Level Indianapolis Center
Fri 10:03:28 PM 38.2472 -87.4050 173° South 470 541 41,000  Level Indianapolis Center
Fri 10:04:29 PM 38.1178 -87.3861 173° South 472 543 41,000  Level Indianapolis Center
Fri 10:05:30 PM 37.9892 -87.3672 173° South 468 539 41,000  Level Indianapolis Center
Fri 10:06:31 PM 37.8594 -87.3481 173° South 470 541 41,000  Level Indianapolis Center
Fri 10:07:32 PM 37.7236 -87.3283 173° South 472 543 41,000  Level Indianapolis Center
Fri 10:08:33 PM 37.5911 -87.3086 173° South 474 545 41,000  Level Indianapolis Center
Fri 10:09:08 PM 37.5192 -87.3031 176° South 471 542 41,000  Level Memphis Center
Fri 10:10:08 PM 37.3853 -87.2822 173° South 476 548 41,000  Level Memphis Center
Fri 10:11:08 PM 37.2536 -87.2639 174° South 481 554 41,000  Level Memphis Center
Fri 10:12:08 PM 37.1178 -87.2456 174° South 486 559 41,000  Level Memphis Center
Fri 10:13:08 PM 36.9881 -87.2247 173° South 476 548 41,000  Level Memphis Center
Fri 10:14:08 PM 36.8544 -87.2067 174° South 487 560 41,000  Level Memphis Center
Fri 10:15:08 PM 36.7244 -87.1858 173° South 482 555 41,000  Level Memphis Center
Fri 10:16:08 PM 36.5950 -87.1703 174° South 482 555 41,000  Level Memphis Center
Fri 10:17:08 PM 36.4631 -87.1497 173° South 487 560 41,000  Level Memphis Center
Fri 10:18:08 PM 36.3350 -87.1136 167° South 482 555 41,000  Level Memphis Center
Fri 10:19:08 PM 36.2047 -87.0697 165° South 482 555 41,000  Level Memphis Center
Fri 10:20:08 PM 36.0783 -87.0286 165° South 482 555 41,000  Level Memphis Center
Fri 10:21:08 PM 35.9500 -86.9853 165° South 477 549 41,000  Level Memphis Center
Fri 10:22:08 PM 35.8072 -86.9425 166° South 477 549 41,000  Level Memphis Center
Fri 10:24:23 PM 35.5317 -86.8561 166° South 490 564 41,000  Level Atlanta Center
Fri 10:25:23 PM 35.3969 -86.8158 166° South 475 547 41,000 -350 Level Atlanta Center
Fri 10:26:23 PM 35.2664 -86.7733 165° South 475 547 40,300 -2,457 Descending Atlanta Center
Fri 10:27:08 PM 35.1611 -86.7428 167° South 475 547 36,700 -4,000 Descending Memphis Center
Fri 10:28:08 PM 35.0244 -86.7006 166° South 487 560 33,300 -3,000 Descending Memphis Center
Fri 10:29:08 PM 34.8875 -86.6608 167° South 500 575 30,700 -2,750 Descending Memphis Center
Fri 10:30:08 PM 34.7597 -86.6436 174° South 485 558 27,800 -3,016 Descending Memphis Center
Fri 10:32:11 PM 34.5042 -86.7056 191° South 475 547 21,500 -3,099 Descending Atlanta Center
Fri 10:33:10 PM 34.3867 -86.7397 193° South 428 493 18,400 -2,961 Descending Atlanta Center
Fri 10:33:28 PM 34.3508 -86.7511 195° South 428 493 17,700 -2,754 Descending Atlanta Center
Fri 10:34:11 PM 34.2717 -86.7461 177° South 439 505 15,600 -3,000 Descending Atlanta Center
Fri 10:34:28 PM 34.2361 -86.7525 188° South 409 471 14,700 -2,900 Descending Atlanta Center
Fri 10:35:11 PM 34.1589 -86.7450 175° South 419 482 12,700 -2,951 Descending Atlanta Center
Fri 10:35:29 PM 34.1211 -86.7539 191° South 387 445 11,700 -1,700 Descending Atlanta Center
Fri 10:36:11 PM 34.0525 -86.7492 177° South 405 466 11,000 -885 Descending Atlanta Center
Fri 10:36:30 PM 34.0169 -86.7531 185° South 371 427 10,800 -1,400 Descending Atlanta Center
Fri 10:37:11 PM 33.9497 -86.7658 189° South 388 447 9,600 -1,300 Descending Atlanta Center
Fri 10:37:30 PM 33.9203 -86.7750 194° South 338 389 9,500 -900 Descending Atlanta Center
Fri 10:38:11 PM 33.8658 -86.7858 189° South 352 405 8,700 -1,279 Descending Atlanta Center
Fri 10:38:31 PM 33.8364 -86.7972 198° South 300 345 8,200 -1,400 Descending Atlanta Center
Fri 10:39:11 PM 33.7842 -86.8056 188° South 325 374 7,300 -1,500 Descending Atlanta Center
Fri 10:39:31 PM 33.7525 -86.8147 194° South 286 329 6,700 -1,800 Descending Atlanta Center
Fri 10:40:11 PM 33.7122 -86.8408 208° Southwest 296 341 5,500 -1,672 Descending Atlanta Center
Fri 10:40:32 PM 33.6886 -86.8675 223° Southwest 291 335 5,000 -700 Descending Atlanta Center
Fri 10:41:11 PM 33.6544 -86.9036 221° Southwest 280 322 4,800 -393 Descending Atlanta Center
Fri 10:41:33 PM 33.6331 -86.9281 224° Southwest 253 291 4,600 -900 Descending Atlanta Center
Fri 10:42:11 PM 33.6031 -86.9569 219° Southwest 269 310 3,900 -1,100 Descending Atlanta Center
Fri 10:42:33 PM 33.5817 -86.9811 223° Southwest 240 276 3,500 -651 Descending Atlanta Center
Fri 10:43:34 PM 33.5269 -87.0042 199° South 228 262 3,000 -492 Descending Atlanta Center

Login

Don't have an account? Register now (free) for customized features, flight alerts, and more!